Amidon, North Dakota
Current Conditions -  °F | °C
As of 6:56 AM on Thursday 27 Nov 2014 (Local Time) from KDIK Reporting Station
Overcast Overcast  
Wind Chill:   Ceiling: 6500
Heat Index: 15°   Visibility: 10mi
Dew Point: 12°   Wind: 14mph
Humidity: 88%   Direction: 160°SSE
Pressure: 30.12"   Gusts: NA
Location:  46.48°N, 103.32°W
Report Text: KDIK 271356Z AUTO 16012KT 10SM BKN065 OVC080 M09/M11 A3012 RMK AO2 SLP248 T10941111
Loading
Personal Weather Stations






























Interactive Weather Map New forecast layout! Learn more

10-Day Weather Forecast

Advertisements
Track Severe Weather on mobile